This is the latest recevied weather packets stored in our database for station/object BM1CKC-10. If no packets are shown the sender has not sent any weather packets the latest 10 day(s).
| Time | Temp. | Humidity | Pressure | Rain* | Wind** | Luminosity | Snow |
|---|---|---|---|---|---|---|---|
| 1777717798 | 28.33° C | 60% | 1003.8 hPa | - | - | - | - |
| 1777716598 | 28.33° C | 60% | 1003.6 hPa | - | - | - | - |
| 1777715398 | 28.89° C | 59% | 1003.6 hPa | - | - | - | - |
| 1777714198 | 28.89° C | 59% | 1003.6 hPa | - | - | - | - |
| 1777712998 | 28.33° C | 61% | 1003.5 hPa | - | - | - | - |
| 1777711798 | 28.33° C | 60% | 1003.4 hPa | - | - | - | - |
| 1777710598 | 28.33° C | 59% | 1003.5 hPa | - | - | - | - |
| 1777709398 | 28.33° C | 61% | 1003.7 hPa | - | - | - | - |
| 1777708199 | 28.33° C | 60% | 1003.8 hPa | - | - | - | - |
| 1777706998 | 28.89° C | 59% | 1003.7 hPa | - | - | - | - |
| 1777705798 | 28.33° C | 61% | 1003.9 hPa | - | - | - | - |
| 1777704598 | 28.33° C | 60% | 1003.9 hPa | - | - | - | - |
| 1777703398 | 28.89° C | 59% | 1004.1 hPa | - | - | - | - |
| 1777702205 | 28.33° C | 59% | 1004.2 hPa | - | - | - | - |
| 1777700999 | 28.89° C | 56% | 1004.5 hPa | - | - | - | - |
| 1777699798 | 28.33° C | 58% | 1004.7 hPa | - | - | - | - |
| 1777698622 | 28.33° C | 59% | 1004.8 hPa | - | - | - | - |
| 1777697399 | 28.33° C | 57% | 1005 hPa | - | - | - | - |
| 1777696199 | 29.44° C | 54% | 1004.9 hPa | - | - | - | - |
| 1777694998 | 28.89° C | 54% | 1005.2 hPa | - | - | - | - |
| 1777693798 | 28.33° C | 56% | 1005.5 hPa | - | - | - | - |
| 1777692598 | 28.33° C | 56% | 1005.6 hPa | - | - | - | - |
| 1777691398 | 28.33° C | 56% | 1005.8 hPa | - | - | - | - |
| 1777690198 | 28.33° C | 56% | 1006 hPa | - | - | - | - |
| 1777688998 | 27.78° C | 56% | 1006.1 hPa | - | - | - | - |
* Rain since midnight (hover to see other rain measurements)
** Current wind speed in m/s (hover to see current wind gust speed)